sensor_id;sensor_type;location;lat;lon;timestamp;temperature;humidity
11855;DHT22;5987;53.140;8.904;2024-02-16T00:02:56;11.30;99.90
11855;DHT22;5987;53.140;8.904;2024-02-16T00:06:01;11.30;99.90
11855;DHT22;5987;53.140;8.904;2024-02-16T00:09:07;11.30;99.90
11855;DHT22;5987;53.140;8.904;2024-02-16T00:12:12;11.30;99.90
11855;DHT22;5987;53.140;8.904;2024-02-16T00:15:17;11.30;99.90
11855;DHT22;5987;53.140;8.904;2024-02-16T00:18:21;11.20;99.90
11855;DHT22;5987;53.140;8.904;2024-02-16T00:21:25;11.30;99.90
11855;DHT22;5987;53.140;8.904;2024-02-16T00:24:30;11.30;99.90
11855;DHT22;5987;53.140;8.904;2024-02-16T00:27:35;11.30;99.90
11855;DHT22;5987;53.140;8.904;2024-02-16T00:30:41;11.30;99.90
11855;DHT22;5987;53.140;8.904;2024-02-16T00:33:44;11.30;99.90
11855;DHT22;5987;53.140;8.904;2024-02-16T00:36:48;11.30;99.90
11855;DHT22;5987;53.140;8.904;2024-02-16T00:39:53;11.10;99.90
11855;DHT22;5987;53.140;8.904;2024-02-16T00:42:57;11.20;99.90
11855;DHT22;5987;53.140;8.904;2024-02-16T00:46:01;11.20;99.90
11855;DHT22;5987;53.140;8.904;2024-02-16T00:49:05;11.10;99.90
11855;DHT22;5987;53.140;8.904;2024-02-16T00:52:09;11.20;99.90
11855;DHT22;5987;53.140;8.904;2024-02-16T00:55:15;11.10;99.90
11855;DHT22;5987;53.140;8.904;2024-02-16T00:58:18;11.20;99.90
11855;DHT22;5987;53.140;8.904;2024-02-16T01:01:22;11.20;99.90
11855;DHT22;5987;53.140;8.904;2024-02-16T01:04:28;11.10;99.90
11855;DHT22;5987;53.140;8.904;2024-02-16T01:07:32;11.20;99.90
11855;DHT22;5987;53.140;8.904;2024-02-16T01:10:37;11.20;99.90
11855;DHT22;5987;53.140;8.904;2024-02-16T01:13:41;11.20;99.90
11855;DHT22;5987;53.140;8.904;2024-02-16T01:16:46;11.20;99.90
11855;DHT22;5987;53.140;8.904;2024-02-16T01:19:50;11.20;99.90
11855;DHT22;5987;53.140;8.904;2024-02-16T01:22:54;11.20;99.90
11855;DHT22;5987;53.140;8.904;2024-02-16T01:25:59;11.20;99.90
11855;DHT22;5987;53.140;8.904;2024-02-16T01:29:03;11.10;99.90
11855;DHT22;5987;53.140;8.904;2024-02-16T01:32:07;11.20;99.90
11855;DHT22;5987;53.140;8.904;2024-02-16T01:35:11;11.20;99.90
11855;DHT22;5987;53.140;8.904;2024-02-16T01:38:16;11.20;99.90
11855;DHT22;5987;53.140;8.904;2024-02-16T01:41:21;11.20;99.90
11855;DHT22;5987;53.140;8.904;2024-02-16T01:44:25;11.10;99.90
11855;DHT22;5987;53.140;8.904;2024-02-16T01:47:29;11.10;99.90
11855;DHT22;5987;53.140;8.904;2024-02-16T01:50:33;11.00;99.90
11855;DHT22;5987;53.140;8.904;2024-02-16T01:53:39;11.00;99.90
11855;DHT22;5987;53.140;8.904;2024-02-16T01:56:45;11.10;99.90
11855;DHT22;5987;53.140;8.904;2024-02-16T01:59:51;11.10;99.90
11855;DHT22;5987;53.140;8.904;2024-02-16T02:02:56;11.00;99.90
11855;DHT22;5987;53.140;8.904;2024-02-16T02:06:00;11.00;99.90
11855;DHT22;5987;53.140;8.904;2024-02-16T02:09:04;11.00;99.90
11855;DHT22;5987;53.140;8.904;2024-02-16T02:12:09;11.00;99.90
11855;DHT22;5987;53.140;8.904;2024-02-16T02:15:13;10.90;99.90
11855;DHT22;5987;53.140;8.904;2024-02-16T02:18:17;10.90;99.90
11855;DHT22;5987;53.140;8.904;2024-02-16T02:21:21;10.90;99.90
11855;DHT22;5987;53.140;8.904;2024-02-16T02:24:26;10.80;99.90
11855;DHT22;5987;53.140;8.904;2024-02-16T02:27:30;10.90;99.90
11855;DHT22;5987;53.140;8.904;2024-02-16T02:30:35;10.90;99.90
11855;DHT22;5987;53.140;8.904;2024-02-16T02:33:40;10.90;99.90
11855;DHT22;5987;53.140;8.904;2024-02-16T02:36:44;10.90;99.90
11855;DHT22;5987;53.140;8.904;2024-02-16T02:39:49;10.80;99.90
11855;DHT22;5987;53.140;8.904;2024-02-16T02:42:53;10.80;99.90
11855;DHT22;5987;53.140;8.904;2024-02-16T02:45:57;10.70;99.90
11855;DHT22;5987;53.140;8.904;2024-02-16T02:49:01;10.70;99.90
11855;DHT22;5987;53.140;8.904;2024-02-16T02:52:06;10.80;99.90
11855;DHT22;5987;53.140;8.904;2024-02-16T02:55:11;10.80;99.90
11855;DHT22;5987;53.140;8.904;2024-02-16T02:58:14;10.80;99.90
11855;DHT22;5987;53.140;8.904;2024-02-16T03:01:19;10.90;99.90
11855;DHT22;5987;53.140;8.904;2024-02-16T03:04:24;10.90;99.90
11855;DHT22;5987;53.140;8.904;2024-02-16T03:07:28;11.00;99.90
11855;DHT22;5987;53.140;8.904;2024-02-16T03:10:33;11.00;99.90
11855;DHT22;5987;53.140;8.904;2024-02-16T03:13:38;11.00;99.90
11855;DHT22;5987;53.140;8.904;2024-02-16T03:16:42;10.90;99.90
11855;DHT22;5987;53.140;8.904;2024-02-16T03:19:46;10.90;99.90
11855;DHT22;5987;53.140;8.904;2024-02-16T03:22:50;10.90;99.90
11855;DHT22;5987;53.140;8.904;2024-02-16T03:25:56;10.90;99.90
11855;DHT22;5987;53.140;8.904;2024-02-16T03:28:59;10.90;99.90
11855;DHT22;5987;53.140;8.904;2024-02-16T03:32:03;10.80;99.90
11855;DHT22;5987;53.140;8.904;2024-02-16T03:35:08;10.80;99.90
11855;DHT22;5987;53.140;8.904;2024-02-16T03:38:11;10.90;99.90
11855;DHT22;5987;53.140;8.904;2024-02-16T03:41:18;10.90;99.90
11855;DHT22;5987;53.140;8.904;2024-02-16T03:44:23;10.90;99.90
11855;DHT22;5987;53.140;8.904;2024-02-16T03:47:26;10.90;99.90
11855;DHT22;5987;53.140;8.904;2024-02-16T03:50:30;10.90;99.90
11855;DHT22;5987;53.140;8.904;2024-02-16T03:53:34;11.00;99.90
11855;DHT22;5987;53.140;8.904;2024-02-16T03:56:39;11.00;99.90
11855;DHT22;5987;53.140;8.904;2024-02-16T03:59:43;11.00;99.90
11855;DHT22;5987;53.140;8.904;2024-02-16T04:02:47;10.90;99.90
11855;DHT22;5987;53.140;8.904;2024-02-16T04:05:51;10.90;99.90
11855;DHT22;5987;53.140;8.904;2024-02-16T04:08:55;10.90;99.90
11855;DHT22;5987;53.140;8.904;2024-02-16T04:12:01;10.90;99.90
11855;DHT22;5987;53.140;8.904;2024-02-16T04:15:06;10.90;99.90
11855;DHT22;5987;53.140;8.904;2024-02-16T04:18:10;10.90;99.90
11855;DHT22;5987;53.140;8.904;2024-02-16T04:21:14;10.90;99.90
11855;DHT22;5987;53.140;8.904;2024-02-16T04:24:18;10.90;99.90
11855;DHT22;5987;53.140;8.904;2024-02-16T04:27:23;10.90;99.90
11855;DHT22;5987;53.140;8.904;2024-02-16T04:30:27;10.90;99.90
11855;DHT22;5987;53.140;8.904;2024-02-16T04:33:31;11.00;99.90
11855;DHT22;5987;53.140;8.904;2024-02-16T04:36:35;11.00;99.90
11855;DHT22;5987;53.140;8.904;2024-02-16T04:39:39;11.00;99.90
11855;DHT22;5987;53.140;8.904;2024-02-16T04:42:45;11.00;99.90
11855;DHT22;5987;53.140;8.904;2024-02-16T04:45:49;10.90;99.90
11855;DHT22;5987;53.140;8.904;2024-02-16T04:48:52;10.80;99.90
11855;DHT22;5987;53.140;8.904;2024-02-16T04:51:56;10.90;99.90
11855;DHT22;5987;53.140;8.904;2024-02-16T04:55:00;10.80;99.90
11855;DHT22;5987;53.140;8.904;2024-02-16T04:58:05;10.70;99.90
11855;DHT22;5987;53.140;8.904;2024-02-16T05:01:13;10.70;99.90
11855;DHT22;5987;53.140;8.904;2024-02-16T05:04:17;10.70;99.90
11855;DHT22;5987;53.140;8.904;2024-02-16T05:07:22;10.80;99.90
11855;DHT22;5987;53.140;8.904;2024-02-16T05:10:26;10.90;99.90
11855;DHT22;5987;53.140;8.904;2024-02-16T05:13:31;10.80;99.90
11855;DHT22;5987;53.140;8.904;2024-02-16T05:16:35;10.70;99.90
11855;DHT22;5987;53.140;8.904;2024-02-16T05:19:39;10.80;99.90
11855;DHT22;5987;53.140;8.904;2024-02-16T05:22:43;10.70;99.90
11855;DHT22;5987;53.140;8.904;2024-02-16T05:25:48;10.80;99.90
11855;DHT22;5987;53.140;8.904;2024-02-16T05:28:53;10.70;99.90
11855;DHT22;5987;53.140;8.904;2024-02-16T05:31:57;10.70;99.90
11855;DHT22;5987;53.140;8.904;2024-02-16T05:35:00;10.70;99.90
11855;DHT22;5987;53.140;8.904;2024-02-16T05:38:07;10.70;99.90
11855;DHT22;5987;53.140;8.904;2024-02-16T05:41:22;10.60;99.90
11855;DHT22;5987;53.140;8.904;2024-02-16T05:44:28;10.70;99.90
11855;DHT22;5987;53.140;8.904;2024-02-16T05:47:32;10.80;99.90
11855;DHT22;5987;53.140;8.904;2024-02-16T05:50:35;10.80;99.90
11855;DHT22;5987;53.140;8.904;2024-02-16T05:53:39;10.80;99.90
11855;DHT22;5987;53.140;8.904;2024-02-16T05:56:43;10.80;99.90
11855;DHT22;5987;53.140;8.904;2024-02-16T05:59:49;10.70;99.90
11855;DHT22;5987;53.140;8.904;2024-02-16T06:02:54;10.70;99.90
11855;DHT22;5987;53.140;8.904;2024-02-16T06:05:58;10.70;99.90
11855;DHT22;5987;53.140;8.904;2024-02-16T06:09:02;10.70;99.90
11855;DHT22;5987;53.140;8.904;2024-02-16T06:12:09;10.60;99.90
11855;DHT22;5987;53.140;8.904;2024-02-16T06:15:29;10.60;99.90
11855;DHT22;5987;53.140;8.904;2024-02-16T06:18:34;10.50;99.90
11855;DHT22;5987;53.140;8.904;2024-02-16T06:21:38;10.40;99.90
11855;DHT22;5987;53.140;8.904;2024-02-16T06:24:42;10.50;99.90
11855;DHT22;5987;53.140;8.904;2024-02-16T06:27:46;10.40;99.90
11855;DHT22;5987;53.140;8.904;2024-02-16T06:30:51;10.50;99.90
11855;DHT22;5987;53.140;8.904;2024-02-16T06:33:55;10.40;99.90
11855;DHT22;5987;53.140;8.904;2024-02-16T06:36:59;10.60;99.90
11855;DHT22;5987;53.140;8.904;2024-02-16T06:40:04;10.60;99.90
11855;DHT22;5987;53.140;8.904;2024-02-16T06:43:09;10.70;99.90
11855;DHT22;5987;53.140;8.904;2024-02-16T06:46:14;10.70;99.90
11855;DHT22;5987;53.140;8.904;2024-02-16T06:49:18;10.70;99.90
11855;DHT22;5987;53.140;8.904;2024-02-16T06:52:22;10.80;99.90
11855;DHT22;5987;53.140;8.904;2024-02-16T06:55:26;10.90;99.90
11855;DHT22;5987;53.140;8.904;2024-02-16T06:58:30;11.00;99.90
11855;DHT22;5987;53.140;8.904;2024-02-16T07:01:35;10.90;99.90
11855;DHT22;5987;53.140;8.904;2024-02-16T07:04:40;10.90;99.90
11855;DHT22;5987;53.140;8.904;2024-02-16T07:07:44;11.00;99.90
11855;DHT22;5987;53.140;8.904;2024-02-16T07:10:48;11.00;99.90
11855;DHT22;5987;53.140;8.904;2024-02-16T07:13:54;11.10;99.90
11855;DHT22;5987;53.140;8.904;2024-02-16T07:16:59;11.00;99.90
11855;DHT22;5987;53.140;8.904;2024-02-16T07:20:04;10.90;99.90
11855;DHT22;5987;53.140;8.904;2024-02-16T07:23:09;10.80;99.90
11855;DHT22;5987;53.140;8.904;2024-02-16T07:26:12;10.90;99.90
11855;DHT22;5987;53.140;8.904;2024-02-16T07:29:16;10.90;99.90
11855;DHT22;5987;53.140;8.904;2024-02-16T07:32:21;10.90;99.90
11855;DHT22;5987;53.140;8.904;2024-02-16T07:35:25;11.00;99.90
11855;DHT22;5987;53.140;8.904;2024-02-16T07:38:29;11.00;99.90
11855;DHT22;5987;53.140;8.904;2024-02-16T07:41:33;11.00;99.90
11855;DHT22;5987;53.140;8.904;2024-02-16T07:44:37;11.00;99.90
11855;DHT22;5987;53.140;8.904;2024-02-16T07:47:42;11.10;99.90
11855;DHT22;5987;53.140;8.904;2024-02-16T07:50:46;11.30;99.90
11855;DHT22;5987;53.140;8.904;2024-02-16T07:53:52;11.30;99.90
11855;DHT22;5987;53.140;8.904;2024-02-16T07:56:56;11.40;99.90
11855;DHT22;5987;53.140;8.904;2024-02-16T08:00:04;11.60;99.90
11855;DHT22;5987;53.140;8.904;2024-02-16T08:03:10;11.60;99.90
11855;DHT22;5987;53.140;8.904;2024-02-16T08:06:14;11.70;99.90
11855;DHT22;5987;53.140;8.904;2024-02-16T08:09:18;11.80;99.90
11855;DHT22;5987;53.140;8.904;2024-02-16T08:12:22;11.80;99.90
11855;DHT22;5987;53.140;8.904;2024-02-16T08:15:28;11.90;99.90
11855;DHT22;5987;53.140;8.904;2024-02-16T08:18:33;12.00;99.90
11855;DHT22;5987;53.140;8.904;2024-02-16T08:21:38;12.00;99.90
11855;DHT22;5987;53.140;8.904;2024-02-16T08:24:43;12.00;99.90
11855;DHT22;5987;53.140;8.904;2024-02-16T08:27:48;12.00;99.90
11855;DHT22;5987;53.140;8.904;2024-02-16T08:30:52;12.10;99.90
11855;DHT22;5987;53.140;8.904;2024-02-16T08:33:58;12.20;99.90
11855;DHT22;5987;53.140;8.904;2024-02-16T08:37:05;12.30;99.90
11855;DHT22;5987;53.140;8.904;2024-02-16T08:40:11;12.20;99.90
11855;DHT22;5987;53.140;8.904;2024-02-16T08:43:17;12.30;99.90
11855;DHT22;5987;53.140;8.904;2024-02-16T08:46:21;12.40;99.90
11855;DHT22;5987;53.140;8.904;2024-02-16T08:49:26;12.50;99.90
11855;DHT22;5987;53.140;8.904;2024-02-16T08:52:31;12.60;99.90
11855;DHT22;5987;53.140;8.904;2024-02-16T08:55:35;12.60;99.90
11855;DHT22;5987;53.140;8.904;2024-02-16T08:58:38;12.80;99.90
11855;DHT22;5987;53.140;8.904;2024-02-16T09:01:43;12.90;99.90
11855;DHT22;5987;53.140;8.904;2024-02-16T09:04:48;13.00;99.90
11855;DHT22;5987;53.140;8.904;2024-02-16T09:07:52;13.10;99.90
11855;DHT22;5987;53.140;8.904;2024-02-16T09:10:55;13.10;99.90
11855;DHT22;5987;53.140;8.904;2024-02-16T09:13:59;13.00;99.90
11855;DHT22;5987;53.140;8.904;2024-02-16T09:17:03;13.20;99.90
11855;DHT22;5987;53.140;8.904;2024-02-16T09:20:11;13.30;99.90
11855;DHT22;5987;53.140;8.904;2024-02-16T09:23:15;13.30;99.90
11855;DHT22;5987;53.140;8.904;2024-02-16T09:26:18;13.40;99.90
11855;DHT22;5987;53.140;8.904;2024-02-16T09:29:22;13.50;99.90
11855;DHT22;5987;53.140;8.904;2024-02-16T09:32:26;13.60;99.90
11855;DHT22;5987;53.140;8.904;2024-02-16T09:35:31;13.60;99.90
11855;DHT22;5987;53.140;8.904;2024-02-16T09:38:35;13.80;99.90
11855;DHT22;5987;53.140;8.904;2024-02-16T09:41:41;14.00;99.90
11855;DHT22;5987;53.140;8.904;2024-02-16T09:44:47;14.20;99.90
11855;DHT22;5987;53.140;8.904;2024-02-16T09:47:51;14.30;99.90
11855;DHT22;5987;53.140;8.904;2024-02-16T09:51:09;14.30;99.90
11855;DHT22;5987;53.140;8.904;2024-02-16T09:54:13;14.30;99.90
11855;DHT22;5987;53.140;8.904;2024-02-16T09:57:17;14.30;99.90
11855;DHT22;5987;53.140;8.904;2024-02-16T10:00:21;14.20;99.90
11855;DHT22;5987;53.140;8.904;2024-02-16T10:03:27;14.30;99.90
11855;DHT22;5987;53.140;8.904;2024-02-16T10:06:33;14.30;99.90
11855;DHT22;5987;53.140;8.904;2024-02-16T10:09:48;14.30;99.90
11855;DHT22;5987;53.140;8.904;2024-02-16T10:13:01;14.30;99.90
11855;DHT22;5987;53.140;8.904;2024-02-16T10:16:07;14.30;99.90
11855;DHT22;5987;53.140;8.904;2024-02-16T10:19:17;14.30;99.90
11855;DHT22;5987;53.140;8.904;2024-02-16T10:22:22;14.30;99.90
11855;DHT22;5987;53.140;8.904;2024-02-16T10:25:26;14.30;99.90
11855;DHT22;5987;53.140;8.904;2024-02-16T10:28:34;14.30;99.90
11855;DHT22;5987;53.140;8.904;2024-02-16T10:31:38;14.30;99.90
11855;DHT22;5987;53.140;8.904;2024-02-16T10:34:43;14.50;99.90
11855;DHT22;5987;53.140;8.904;2024-02-16T10:37:51;14.50;99.90
11855;DHT22;5987;53.140;8.904;2024-02-16T10:40:56;14.70;99.90
11855;DHT22;5987;53.140;8.904;2024-02-16T10:44:04;14.70;99.90
11855;DHT22;5987;53.140;8.904;2024-02-16T10:47:08;14.70;99.90
11855;DHT22;5987;53.140;8.904;2024-02-16T10:50:12;14.70;99.90
11855;DHT22;5987;53.140;8.904;2024-02-16T10:53:22;14.80;99.90
11855;DHT22;5987;53.140;8.904;2024-02-16T10:56:32;14.90;99.90
11855;DHT22;5987;53.140;8.904;2024-02-16T10:59:43;15.00;99.90
11855;DHT22;5987;53.140;8.904;2024-02-16T11:02:53;15.00;99.90
11855;DHT22;5987;53.140;8.904;2024-02-16T11:05:58;15.00;99.90
11855;DHT22;5987;53.140;8.904;2024-02-16T11:09:04;15.00;99.90
11855;DHT22;5987;53.140;8.904;2024-02-16T11:12:13;15.10;99.90
11855;DHT22;5987;53.140;8.904;2024-02-16T11:15:27;15.10;99.90
11855;DHT22;5987;53.140;8.904;2024-02-16T11:18:36;15.20;99.90
11855;DHT22;5987;53.140;8.904;2024-02-16T11:21:55;15.30;99.90
11855;DHT22;5987;53.140;8.904;2024-02-16T11:25:05;15.40;99.90
11855;DHT22;5987;53.140;8.904;2024-02-16T11:28:12;15.40;99.90
11855;DHT22;5987;53.140;8.904;2024-02-16T11:31:17;15.60;99.90
11855;DHT22;5987;53.140;8.904;2024-02-16T11:34:22;15.60;99.90
11855;DHT22;5987;53.140;8.904;2024-02-16T11:37:28;15.60;99.90
11855;DHT22;5987;53.140;8.904;2024-02-16T11:40:34;15.60;99.90
11855;DHT22;5987;53.140;8.904;2024-02-16T11:43:39;15.60;99.90
11855;DHT22;5987;53.140;8.904;2024-02-16T11:46:43;15.60;99.90
11855;DHT22;5987;53.140;8.904;2024-02-16T11:49:46;15.60;99.90
11855;DHT22;5987;53.140;8.904;2024-02-16T11:52:52;15.50;99.90
11855;DHT22;5987;53.140;8.904;2024-02-16T11:55:57;15.50;99.90
11855;DHT22;5987;53.140;8.904;2024-02-16T11:59:02;15.40;99.90
11855;DHT22;5987;53.140;8.904;2024-02-16T12:02:05;15.40;99.90
11855;DHT22;5987;53.140;8.904;2024-02-16T12:05:09;15.30;99.90
11855;DHT22;5987;53.140;8.904;2024-02-16T12:08:17;15.30;99.90
11855;DHT22;5987;53.140;8.904;2024-02-16T12:11:25;15.40;99.90
11855;DHT22;5987;53.140;8.904;2024-02-16T12:14:28;15.20;99.90
11855;DHT22;5987;53.140;8.904;2024-02-16T12:17:32;15.10;99.90
11855;DHT22;5987;53.140;8.904;2024-02-16T12:20:37;15.00;99.90
11855;DHT22;5987;53.140;8.904;2024-02-16T12:23:40;15.00;99.90
11855;DHT22;5987;53.140;8.904;2024-02-16T12:26:46;15.00;99.90
11855;DHT22;5987;53.140;8.904;2024-02-16T12:29:49;15.00;99.90
11855;DHT22;5987;53.140;8.904;2024-02-16T12:32:55;15.00;99.90
11855;DHT22;5987;53.140;8.904;2024-02-16T12:35:59;15.00;99.90
11855;DHT22;5987;53.140;8.904;2024-02-16T12:39:03;15.10;99.90
11855;DHT22;5987;53.140;8.904;2024-02-16T12:42:09;15.00;99.90
11855;DHT22;5987;53.140;8.904;2024-02-16T12:45:14;15.00;99.90
11855;DHT22;5987;53.140;8.904;2024-02-16T12:48:19;15.00;99.90
11855;DHT22;5987;53.140;8.904;2024-02-16T12:51:23;15.00;99.90
11855;DHT22;5987;53.140;8.904;2024-02-16T12:54:27;15.10;99.90
11855;DHT22;5987;53.140;8.904;2024-02-16T12:57:32;15.10;99.90
11855;DHT22;5987;53.140;8.904;2024-02-16T13:00:36;15.10;99.90
11855;DHT22;5987;53.140;8.904;2024-02-16T13:03:40;15.20;99.90
11855;DHT22;5987;53.140;8.904;2024-02-16T13:06:44;15.20;99.90
11855;DHT22;5987;53.140;8.904;2024-02-16T13:09:48;15.20;99.90
11855;DHT22;5987;53.140;8.904;2024-02-16T13:12:54;15.30;99.90
11855;DHT22;5987;53.140;8.904;2024-02-16T13:15:58;15.30;99.90
11855;DHT22;5987;53.140;8.904;2024-02-16T13:19:02;15.40;99.90
11855;DHT22;5987;53.140;8.904;2024-02-16T13:22:06;15.50;99.90
11855;DHT22;5987;53.140;8.904;2024-02-16T13:25:10;15.60;99.90
11855;DHT22;5987;53.140;8.904;2024-02-16T13:28:15;15.40;99.90
11855;DHT22;5987;53.140;8.904;2024-02-16T13:31:19;15.40;99.90
11855;DHT22;5987;53.140;8.904;2024-02-16T13:34:23;15.30;99.90
11855;DHT22;5987;53.140;8.904;2024-02-16T13:37:29;15.20;99.90
11855;DHT22;5987;53.140;8.904;2024-02-16T13:40:32;15.20;99.90
11855;DHT22;5987;53.140;8.904;2024-02-16T13:43:39;15.10;99.90
11855;DHT22;5987;53.140;8.904;2024-02-16T13:46:45;15.00;99.90
11855;DHT22;5987;53.140;8.904;2024-02-16T13:49:50;14.90;99.90
11855;DHT22;5987;53.140;8.904;2024-02-16T13:52:54;14.70;99.90
11855;DHT22;5987;53.140;8.904;2024-02-16T13:55:58;14.70;99.90
11855;DHT22;5987;53.140;8.904;2024-02-16T13:59:07;14.50;99.90
11855;DHT22;5987;53.140;8.904;2024-02-16T14:02:11;14.40;99.90
11855;DHT22;5987;53.140;8.904;2024-02-16T14:05:15;14.30;99.90
11855;DHT22;5987;53.140;8.904;2024-02-16T14:08:19;14.30;99.90
11855;DHT22;5987;53.140;8.904;2024-02-16T14:11:24;14.20;99.90
11855;DHT22;5987;53.140;8.904;2024-02-16T14:14:30;14.20;99.90
11855;DHT22;5987;53.140;8.904;2024-02-16T14:17:39;14.20;99.90
11855;DHT22;5987;53.140;8.904;2024-02-16T14:20:43;14.10;99.90
11855;DHT22;5987;53.140;8.904;2024-02-16T14:23:47;14.10;99.90
11855;DHT22;5987;53.140;8.904;2024-02-16T14:26:51;14.00;99.90
11855;DHT22;5987;53.140;8.904;2024-02-16T14:29:59;14.00;99.90
11855;DHT22;5987;53.140;8.904;2024-02-16T14:33:03;13.90;99.90
11855;DHT22;5987;53.140;8.904;2024-02-16T14:36:08;13.90;99.90
11855;DHT22;5987;53.140;8.904;2024-02-16T14:39:13;13.90;99.90
11855;DHT22;5987;53.140;8.904;2024-02-16T14:42:18;13.90;99.90
11855;DHT22;5987;53.140;8.904;2024-02-16T14:45:23;13.90;99.90
11855;DHT22;5987;53.140;8.904;2024-02-16T14:48:27;13.90;99.90
11855;DHT22;5987;53.140;8.904;2024-02-16T14:51:32;13.90;99.90
11855;DHT22;5987;53.140;8.904;2024-02-16T14:54:35;13.80;99.90
11855;DHT22;5987;53.140;8.904;2024-02-16T14:57:39;13.80;99.90
11855;DHT22;5987;53.140;8.904;2024-02-16T15:00:45;13.70;99.90
11855;DHT22;5987;53.140;8.904;2024-02-16T15:03:50;13.80;99.90
11855;DHT22;5987;53.140;8.904;2024-02-16T15:06:54;13.70;99.90
11855;DHT22;5987;53.140;8.904;2024-02-16T15:09:57;13.70;99.90
11855;DHT22;5987;53.140;8.904;2024-02-16T15:13:01;13.70;99.90
11855;DHT22;5987;53.140;8.904;2024-02-16T15:16:07;13.70;99.90
11855;DHT22;5987;53.140;8.904;2024-02-16T15:19:11;13.60;99.90
11855;DHT22;5987;53.140;8.904;2024-02-16T15:22:15;13.60;99.90
11855;DHT22;5987;53.140;8.904;2024-02-16T15:25:19;13.50;99.90
11855;DHT22;5987;53.140;8.904;2024-02-16T15:28:24;13.50;99.90
11855;DHT22;5987;53.140;8.904;2024-02-16T15:31:29;13.40;99.90
11855;DHT22;5987;53.140;8.904;2024-02-16T15:34:33;13.40;99.90
11855;DHT22;5987;53.140;8.904;2024-02-16T15:37:37;13.50;99.90
11855;DHT22;5987;53.140;8.904;2024-02-16T15:40:42;13.30;99.90
11855;DHT22;5987;53.140;8.904;2024-02-16T15:43:46;13.30;99.90
11855;DHT22;5987;53.140;8.904;2024-02-16T15:46:51;13.30;99.90
11855;DHT22;5987;53.140;8.904;2024-02-16T15:49:55;13.20;99.90
11855;DHT22;5987;53.140;8.904;2024-02-16T15:52:59;13.20;99.90
11855;DHT22;5987;53.140;8.904;2024-02-16T15:56:03;13.00;99.90
11855;DHT22;5987;53.140;8.904;2024-02-16T15:59:08;13.00;99.90
11855;DHT22;5987;53.140;8.904;2024-02-16T16:02:13;12.90;99.90
11855;DHT22;5987;53.140;8.904;2024-02-16T16:05:17;12.70;99.90
11855;DHT22;5987;53.140;8.904;2024-02-16T16:08:20;12.60;99.90
11855;DHT22;5987;53.140;8.904;2024-02-16T16:11:24;12.40;99.90
11855;DHT22;5987;53.140;8.904;2024-02-16T16:14:28;12.40;99.90
11855;DHT22;5987;53.140;8.904;2024-02-16T16:17:33;12.30;99.90
11855;DHT22;5987;53.140;8.904;2024-02-16T16:20:37;12.30;99.90
11855;DHT22;5987;53.140;8.904;2024-02-16T16:23:41;12.20;99.90
11855;DHT22;5987;53.140;8.904;2024-02-16T16:26:45;12.20;99.90
11855;DHT22;5987;53.140;8.904;2024-02-16T16:29:50;12.20;99.90
11855;DHT22;5987;53.140;8.904;2024-02-16T16:32:55;12.20;99.90
11855;DHT22;5987;53.140;8.904;2024-02-16T16:35:59;12.20;99.90
11855;DHT22;5987;53.140;8.904;2024-02-16T16:39:05;12.10;99.90
11855;DHT22;5987;53.140;8.904;2024-02-16T16:42:09;12.10;99.90
11855;DHT22;5987;53.140;8.904;2024-02-16T16:45:28;12.10;99.90
11855;DHT22;5987;53.140;8.904;2024-02-16T16:48:35;12.00;99.90
11855;DHT22;5987;53.140;8.904;2024-02-16T16:51:40;12.10;99.90
11855;DHT22;5987;53.140;8.904;2024-02-16T16:54:43;12.00;99.90
11855;DHT22;5987;53.140;8.904;2024-02-16T16:57:47;12.00;99.90
11855;DHT22;5987;53.140;8.904;2024-02-16T17:00:51;12.00;99.90
11855;DHT22;5987;53.140;8.904;2024-02-16T17:03:57;12.00;99.90
11855;DHT22;5987;53.140;8.904;2024-02-16T17:07:01;12.00;99.90
11855;DHT22;5987;53.140;8.904;2024-02-16T17:10:06;12.00;99.90
11855;DHT22;5987;53.140;8.904;2024-02-16T17:13:11;12.00;99.90
11855;DHT22;5987;53.140;8.904;2024-02-16T17:16:15;11.90;99.90
11855;DHT22;5987;53.140;8.904;2024-02-16T17:19:20;11.90;99.90
11855;DHT22;5987;53.140;8.904;2024-02-16T17:22:24;11.80;99.90
11855;DHT22;5987;53.140;8.904;2024-02-16T17:25:28;11.80;99.90
11855;DHT22;5987;53.140;8.904;2024-02-16T17:28:32;11.90;99.90
11855;DHT22;5987;53.140;8.904;2024-02-16T17:31:37;11.90;99.90
11855;DHT22;5987;53.140;8.904;2024-02-16T17:34:43;11.90;99.90
11855;DHT22;5987;53.140;8.904;2024-02-16T17:37:47;11.80;99.90
11855;DHT22;5987;53.140;8.904;2024-02-16T17:40:51;11.80;99.90
11855;DHT22;5987;53.140;8.904;2024-02-16T17:43:54;11.80;99.90
11855;DHT22;5987;53.140;8.904;2024-02-16T17:46:58;11.80;99.90
11855;DHT22;5987;53.140;8.904;2024-02-16T17:50:05;11.80;99.90
11855;DHT22;5987;53.140;8.904;2024-02-16T17:53:09;11.80;99.90
11855;DHT22;5987;53.140;8.904;2024-02-16T17:56:13;11.80;99.90
11855;DHT22;5987;53.140;8.904;2024-02-16T17:59:17;11.80;99.90
11855;DHT22;5987;53.140;8.904;2024-02-16T18:02:21;11.80;99.90
11855;DHT22;5987;53.140;8.904;2024-02-16T18:05:41;11.80;99.90
11855;DHT22;5987;53.140;8.904;2024-02-16T18:08:45;11.80;99.90
11855;DHT22;5987;53.140;8.904;2024-02-16T18:11:49;11.70;99.90
11855;DHT22;5987;53.140;8.904;2024-02-16T18:14:53;11.60;99.90
11855;DHT22;5987;53.140;8.904;2024-02-16T18:17:57;11.60;99.90
11855;DHT22;5987;53.140;8.904;2024-02-16T18:21:02;11.70;99.90
11855;DHT22;5987;53.140;8.904;2024-02-16T18:24:06;11.70;99.90
11855;DHT22;5987;53.140;8.904;2024-02-16T18:27:10;11.70;99.90
11855;DHT22;5987;53.140;8.904;2024-02-16T18:30:16;11.70;99.90
11855;DHT22;5987;53.140;8.904;2024-02-16T18:33:21;11.70;99.90
11855;DHT22;5987;53.140;8.904;2024-02-16T18:36:26;11.70;99.90
11855;DHT22;5987;53.140;8.904;2024-02-16T18:39:33;11.70;99.90
11855;DHT22;5987;53.140;8.904;2024-02-16T18:42:37;11.80;99.90
11855;DHT22;5987;53.140;8.904;2024-02-16T18:45:42;11.80;99.90
11855;DHT22;5987;53.140;8.904;2024-02-16T18:48:46;11.80;99.90
11855;DHT22;5987;53.140;8.904;2024-02-16T18:51:52;11.90;99.90
11855;DHT22;5987;53.140;8.904;2024-02-16T18:54:55;11.90;99.90
11855;DHT22;5987;53.140;8.904;2024-02-16T18:57:59;11.90;99.90
11855;DHT22;5987;53.140;8.904;2024-02-16T19:01:03;11.90;99.90
11855;DHT22;5987;53.140;8.904;2024-02-16T19:04:08;11.80;99.90
11855;DHT22;5987;53.140;8.904;2024-02-16T19:07:13;11.80;99.90
11855;DHT22;5987;53.140;8.904;2024-02-16T19:10:19;11.80;99.90
11855;DHT22;5987;53.140;8.904;2024-02-16T19:13:23;11.80;99.90
11855;DHT22;5987;53.140;8.904;2024-02-16T19:16:27;11.80;99.90
11855;DHT22;5987;53.140;8.904;2024-02-16T19:19:31;11.80;99.90
11855;DHT22;5987;53.140;8.904;2024-02-16T19:22:37;11.80;99.90
11855;DHT22;5987;53.140;8.904;2024-02-16T19:25:41;11.80;99.90
11855;DHT22;5987;53.140;8.904;2024-02-16T19:28:44;11.70;99.90
11855;DHT22;5987;53.140;8.904;2024-02-16T19:31:48;11.70;99.90
11855;DHT22;5987;53.140;8.904;2024-02-16T19:34:52;11.70;99.90
11855;DHT22;5987;53.140;8.904;2024-02-16T19:37:57;11.70;99.90
11855;DHT22;5987;53.140;8.904;2024-02-16T19:41:02;11.70;99.90
11855;DHT22;5987;53.140;8.904;2024-02-16T19:44:06;11.70;99.90
11855;DHT22;5987;53.140;8.904;2024-02-16T19:47:10;11.80;99.90